Wetterdaten: Woche 10.01.05 - 16.01.05 (KW2)
Datum Zeit Temperatur Luftfeuchte Luftdruck Niederschlag Windrichtung Taupunkt Windchill Wind
10.01.2005 00:00 2,3 C 88 % 1029 hPa 0,0 l/m N 0,6 C 2,3 C 0,0 km/h (0 Bft)
10.01.2005 01:00 1,3 C 91 % 1029 hPa 0,0 l/m N -0,1 C 1,3 C 0,0 km/h (0 Bft)
10.01.2005 02:00 0,5 C 92 % 1029 hPa 0,0 l/m N -0,6 C 0,5 C 0,0 km/h (0 Bft)
10.01.2005 03:00 -0,1 C 94 % 1029 hPa 0,0 l/m N -0,9 C -0,1 C 0,0 km/h (0 Bft)
10.01.2005 04:00 -0,6 C 95 % 1036 hPa 0,0 l/m N -1,3 C -0,6 C 0,0 km/h (0 Bft)
10.01.2005 05:00 -1,1 C 97 % 1038 hPa 0,0 l/m N -1,5 C -1,1 C 0,0 km/h (0 Bft)
10.01.2005 06:00 -1,1 C 98 % 1055 hPa 0,0 l/m N -1,3 C -1,1 C 0,0 km/h (0 Bft)
10.01.2005 07:00 -1,2 C 99 % 1048 hPa 0,0 l/m N -1,3 C -1,2 C 0,0 km/h (0 Bft)
10.01.2005 08:00 -1,2 C 100 % 1028 hPa 0,0 l/m N -1,2 C -1,2 C 0,0 km/h (0 Bft)
10.01.2005 09:00 0,1 C 100 % 1028 hPa 0,0 l/m S 0,1 C -0,0 C 1,7 km/h (1 Bft)
10.01.2005 10:00 3,0 C 90 % 1017 hPa 0,0 l/m S 1,4 C 0,6 C 9,8 km/h (2 Bft)
10.01.2005 11:00 5,4 C 71 % 979 hPa 0,0 l/m S 0,6 C 3,3 C 10,2 km/h (2 Bft)
10.01.2005 12:00 8,3 C 62 % 1027 hPa 0,0 l/m S 1,4 C 5,4 C 11,6 km/h (2 Bft)
10.01.2005 13:00 10,8 C 53 % 1027 hPa 0,0 l/m O-SO 1,7 C 9,3 C 10,0 km/h (2 Bft)
10.01.2005 14:00 11,6 C 52 % 1026 hPa 0,0 l/m S 2,1 C 9,2 C 11,7 km/h (2 Bft)
10.01.2005 15:00 10,3 C 56 % 1026 hPa 0,0 l/m S 1,8 C 6,9 C 13,1 km/h (3 Bft)
10.01.2005 16:00 8,0 C 63 % 1026 hPa 0,0 l/m S-SW 1,5 C 7,0 C 5,7 km/h (1 Bft)
10.01.2005 17:00 5,3 C 70 % 1026 hPa 0,0 l/m N 0,3 C 5,3 C 0,0 km/h (0 Bft)
10.01.2005 18:00 2,9 C 78 % 1026 hPa 0,0 l/m N -0,5 C 2,9 C 0,0 km/h (0 Bft)
10.01.2005 19:00 2,0 C 86 % 1027 hPa 0,0 l/m N -0,1 C 2,0 C 0,0 km/h (0 Bft)
10.01.2005 20:00 1,3 C 90 % 1027 hPa 0,0 l/m O-NO -0,1 C 1,1 C 3,2 km/h (1 Bft)
10.01.2005 21:00 1,6 C 92 % 1027 hPa 0,0 l/m S 0,4 C -0,3 C 8,5 km/h (2 Bft)
10.01.2005 22:00 1,7 C 93 % 1027 hPa 0,0 l/m O 0,6 C -1,0 C 10,0 km/h (2 Bft)
10.01.2005 23:00 1,3 C 95 % 1028 hPa 0,0 l/m O-SO 0,5 C 0,7 C 2,9 km/h (1 Bft)
11.01.2005 00:00 -0,1 C 94 % 1028 hPa 0,0 l/m N -0,9 C -0,1 C 0,0 km/h (0 Bft)
11.01.2005 01:00 -0,5 C 96 % 1029 hPa 0,0 l/m N -1,1 C -0,5 C 0,0 km/h (0 Bft)
11.01.2005 02:00 -1,1 C 97 % 1029 hPa 0,0 l/m N -1,5 C -1,1 C 0,0 km/h (0 Bft)
11.01.2005 03:00 -1,1 C 98 % 1029 hPa 0,0 l/m N -1,4 C -1,1 C 0,0 km/h (0 Bft)
11.01.2005 04:00 -0,7 C 100 % 1029 hPa 0,0 l/m N -0,7 C -0,7 C 0,1 km/h (0 Bft)
11.01.2005 05:00 -0,0 C 100 % 1029 hPa 0,0 l/m S -0,1 C -1,2 C 5,0 km/h (1 Bft)
11.01.2005 06:00 1,1 C 100 % 1029 hPa 0,0 l/m S-SW 1,1 C -2,3 C 10,6 km/h (2 Bft)
11.01.2005 07:00 2,3 C 89 % 1029 hPa 0,0 l/m S-SW 0,6 C -3,4 C 15,0 km/h (3 Bft)
11.01.2005 08:00 2,9 C 77 % 1030 hPa 0,0 l/m S-SW -0,6 C -0,4 C 11,3 km/h (2 Bft)
11.01.2005 09:00 2,5 C 77 % 1030 hPa 0,0 l/m O -1,0 C 0,3 C 9,9 km/h (2 Bft)
11.01.2005 10:00 3,5 C 74 % 1030 hPa 0,0 l/m O -0,7 C 2,8 C 6,3 km/h (2 Bft)
11.01.2005 11:00 4,3 C 72 % 1030 hPa 0,0 l/m O-SO -0,2 C 4,0 C 4,7 km/h (1 Bft)
11.01.2005 12:00 5,5 C 72 % 1030 hPa 0,0 l/m O-SO 0,9 C 4,9 C 5,6 km/h (1 Bft)
11.01.2005 13:00 9,3 C 59 % 1029 hPa 0,0 l/m S 1,7 C 7,9 C 7,6 km/h (2 Bft)
11.01.2005 14:00 10,3 C 54 % 1028 hPa 0,0 l/m S-SW 1,4 C 7,5 C 12,4 km/h (3 Bft)
11.01.2005 15:00 9,3 C 57 % 1028 hPa 0,0 l/m S 1,2 C 8,2 C 7,5 km/h (2 Bft)
11.01.2005 16:00 7,4 C 63 % 1027 hPa 0,0 l/m S-SW 0,9 C 7,0 C 2,6 km/h (1 Bft)
11.01.2005 17:00 4,4 C 71 % 1028 hPa 0,0 l/m N -0,4 C 4,4 C 0,0 km/h (0 Bft)
11.01.2005 18:00 2,5 C 80 % 1028 hPa 0,0 l/m N -0,7 C 2,5 C 0,0 km/h (0 Bft)
11.01.2005 19:00 1,4 C 83 % 1028 hPa 0,0 l/m N -1,2 C 1,4 C 0,0 km/h (0 Bft)
11.01.2005 20:00 1,4 C 90 % 1028 hPa 0,0 l/m S-SO -0,1 C 1,3 C 2,5 km/h (1 Bft)
11.01.2005 21:00 1,3 C 89 % 1028 hPa 0,0 l/m O-NO -0,3 C 1,0 C 4,0 km/h (1 Bft)
11.01.2005 22:00 0,5 C 90 % 1028 hPa 0,0 l/m N -0,9 C 0,5 C 0,0 km/h (0 Bft)
11.01.2005 23:00 -0,2 C 91 % 1028 hPa 0,0 l/m N -1,5 C -0,2 C 0,0 km/h (0 Bft)
12.01.2005 00:00 -0,6 C 92 % 1028 hPa 0,0 l/m N -1,8 C -0,6 C 0,0 km/h (0 Bft)
12.01.2005 01:00 -1,1 C 93 % 1028 hPa 0,0 l/m S -2,1 C -1,1 C 0,4 km/h (0 Bft)
12.01.2005 02:00 -1,3 C 94 % 1028 hPa 0,0 l/m N -2,2 C -1,3 C 0,0 km/h (0 Bft)
12.01.2005 03:00 -1,9 C 93 % 1027 hPa 0,0 l/m N -2,8 C -1,9 C 0,0 km/h (0 Bft)
12.01.2005 04:00 -1,5 C 94 % 1027 hPa 0,0 l/m S-SO -2,3 C -1,8 C 2,9 km/h (1 Bft)
12.01.2005 05:00 -0,7 C 90 % 1027 hPa 0,0 l/m S -2,1 C -0,8 C 1,9 km/h (1 Bft)
12.01.2005 06:00 -1,1 C 88 % 1027 hPa 0,0 l/m S-SW -2,8 C -1,2 C 2,0 km/h (1 Bft)
12.01.2005 07:00 -1,0 C 88 % 1027 hPa 0,0 l/m S -2,7 C -1,8 C 4,6 km/h (1 Bft)
12.01.2005 08:00 0,3 C 85 % 1027 hPa 0,0 l/m SO -1,9 C -1,1 C 8,0 km/h (2 Bft)
12.01.2005 09:00 1,3 C 73 % 1027 hPa 0,0 l/m O-SO -3,1 C 0,9 C 5,1 km/h (1 Bft)
12.01.2005 10:00 3,0 C 59 % 1027 hPa 0,0 l/m O-SO -4,1 C 1,7 C 8,2 km/h (2 Bft)
12.01.2005 11:00 4,7 C 55 % 1026 hPa 0,0 l/m S-SO -3,5 C 1,7 C 11,4 km/h (2 Bft)
12.01.2005 12:00 5,9 C 56 % 1026 hPa 0,0 l/m S -2,3 C 4,1 C 9,6 km/h (2 Bft)
12.01.2005 13:00 7,8 C 53 % 1025 hPa 0,0 l/m S-SO -1,2 C 4,5 C 12,8 km/h (3 Bft)
12.01.2005 14:00 7,6 C 55 % 1025 hPa 0,0 l/m S -0,9 C 4,7 C 11,9 km/h (2 Bft)
12.01.2005 15:00 6,7 C 59 % 1024 hPa 0,0 l/m S -0,7 C 4,3 C 10,7 km/h (2 Bft)
12.01.2005 16:00 6,4 C 59 % 1024 hPa 0,0 l/m SO -0,9 C 6,4 C 2,2 km/h (1 Bft)
12.01.2005 17:00 6,0 C 62 % 1024 hPa 0,0 l/m O -0,7 C 5,6 C 4,5 km/h (1 Bft)
12.01.2005 18:00 5,2 C 72 % 1025 hPa 0,0 l/m O-SO 0,6 C 4,8 C 4,5 km/h (1 Bft)
12.01.2005 19:00 4,4 C 84 % 1025 hPa 0,0 l/m SO 2,0 C 4,3 C 2,2 km/h (1 Bft)
12.01.2005 20:00 3,8 C 89 % 1025 hPa 0,0 l/m S 2,1 C 2,1 C 7,2 km/h (2 Bft)
12.01.2005 21:00 3,4 C 94 % 1025 hPa 0,0 l/m S 2,5 C 2,0 C 7,6 km/h (2 Bft)
12.01.2005 22:00 3,4 C 97 % 1025 hPa 1,0 l/m SO 2,9 C 2,8 C 6,3 km/h (2 Bft)
12.01.2005 23:00 3,4 C 99 % 1025 hPa 0,0 l/m SO 3,2 C 3,1 C 4,2 km/h (1 Bft)
13.01.2005 00:00 3,4 C 100 % 1025 hPa 1,0 l/m N 3,4 C 3,4 C 0,0 km/h (0 Bft)
13.01.2005 01:00 3,4 C 100 % 1025 hPa 0,0 l/m S-SO 3,4 C 3,4 C 1,9 km/h (1 Bft)
13.01.2005 02:00 3,6 C 100 % 1025 hPa 0,0 l/m S 3,6 C 3,4 C 2,7 km/h (1 Bft)
13.01.2005 03:00 3,7 C 100 % 1025 hPa 1,0 l/m N 3,7 C 3,7 C 0,0 km/h (0 Bft)
13.01.2005 04:00 3,6 C 100 % 1026 hPa 0,0 l/m N 3,6 C 3,6 C 0,0 km/h (0 Bft)
13.01.2005 05:00 3,2 C 100 % 1026 hPa 0,0 l/m W 3,2 C 3,1 C 1,0 km/h (0 Bft)
13.01.2005 06:00 2,1 C 100 % 1026 hPa 0,0 l/m S-SW 2,1 C 2,1 C 1,7 km/h (1 Bft)
13.01.2005 07:00 0,8 C 100 % 1027 hPa 0,0 l/m S 0,8 C 0,7 C 1,3 km/h (1 Bft)
13.01.2005 08:00 0,5 C 100 % 1027 hPa 0,0 l/m S-SW 0,5 C 0,3 C 2,5 km/h (1 Bft)
13.01.2005 09:00 1,8 C 100 % 1028 hPa 0,0 l/m SW 1,8 C 0,1 C 9,2 km/h (2 Bft)
13.01.2005 10:00 3,2 C 99 % 1028 hPa 0,0 l/m W-SW 3,0 C 0,6 C 10,6 km/h (2 Bft)
13.01.2005 11:00 4,6 C 78 % 1028 hPa 0,0 l/m W 1,0 C -1,4 C 17,9 km/h (3 Bft)
13.01.2005 12:00 5,3 C 59 % 1028 hPa 0,0 l/m W-SW -1,9 C -1,3 C 19,9 km/h (4 Bft)
13.01.2005 13:00 5,2 C 55 % 1028 hPa 0,0 l/m W -3,1 C -0,3 C 16,5 km/h (3 Bft)
13.01.2005 14:00 5,9 C 53 % 1028 hPa 0,0 l/m W -2,9 C 0,5 C 16,4 km/h (3 Bft)
13.01.2005 15:00 6,2 C 53 % 1028 hPa 0,0 l/m W-SW -2,7 C 3,3 C 11,7 km/h (2 Bft)
13.01.2005 16:00 4,7 C 59 % 1028 hPa 0,0 l/m W-SW -2,6 C 3,6 C 7,1 km/h (2 Bft)
13.01.2005 17:00 2,9 C 63 % 1028 hPa 0,0 l/m W-SW -3,4 C 2,4 C 6,4 km/h (2 Bft)
13.01.2005 18:00 1,7 C 67 % 1029 hPa 0,0 l/m W-SW -3,9 C 0,3 C 8,3 km/h (2 Bft)
13.01.2005 19:00 1,7 C 66 % 1029 hPa 0,0 l/m W-SW -4,0 C -0,7 C 10,2 km/h (2 Bft)
13.01.2005 20:00 1,9 C 67 % 1029 hPa 0,0 l/m W-SW -3,6 C -0,6 C 9,9 km/h (2 Bft)
13.01.2005 21:00 1,8 C 70 % 1029 hPa 0,0 l/m W -3,1 C 0,8 C 7,7 km/h (2 Bft)
13.01.2005 22:00 0,7 C 74 % 1029 hPa 0,0 l/m S-SW -3,3 C 0,2 C 3,2 km/h (1 Bft)
13.01.2005 23:00 -0,6 C 81 % 1029 hPa 0,0 l/m W-SW -3,5 C -0,6 C 5,8 km/h (2 Bft)
14.01.2005 00:00 -1,3 C 84 % 1029 hPa 0,0 l/m N -3,5 C -1,3 C 0,3 km/h (0 Bft)
14.01.2005 01:00 -2,0 C 89 % 1029 hPa 0,0 l/m N -3,5 C -2,0 C 0,0 km/h (0 Bft)
14.01.2005 02:00 -2,7 C 91 % 1029 hPa 0,0 l/m N -4,0 C -2,7 C 0,0 km/h (0 Bft)
14.01.2005 03:00 -3,3 C 92 % 1029 hPa 0,0 l/m N -4,4 C -3,3 C 0,0 km/h (0 Bft)
14.01.2005 04:00 -3,7 C 92 % 1029 hPa 0,0 l/m N -4,7 C -3,7 C 0,0 km/h (0 Bft)
14.01.2005 05:00 -3,9 C 93 % 1029 hPa 0,0 l/m N -4,8 C -3,9 C 0,0 km/h (0 Bft)
14.01.2005 06:00 -4,1 C 94 % 1029 hPa 0,0 l/m N -4,9 C -4,1 C 0,0 km/h (0 Bft)
14.01.2005 07:00 -3,7 C 95 % 1030 hPa 0,0 l/m N -4,4 C -3,7 C 0,0 km/h (0 Bft)
14.01.2005 08:00 -3,0 C 97 % 1030 hPa 0,0 l/m N -3,5 C -3,0 C 0,0 km/h (0 Bft)
14.01.2005 09:00 -2,1 C 98 % 1030 hPa 0,0 l/m N -2,4 C -2,1 C 0,0 km/h (0 Bft)
14.01.2005 10:00 -1,0 C 99 % 1030 hPa 0,0 l/m N -1,2 C -1,0 C 0,0 km/h (0 Bft)
14.01.2005 11:00 0,4 C 97 % 1030 hPa 0,0 l/m N -0,0 C 0,4 C 0,0 km/h (0 Bft)
14.01.2005 12:00 3,1 C 71 % 1030 hPa 0,0 l/m N-NO -1,7 C 2,4 C 5,0 km/h (1 Bft)
14.01.2005 13:00 3,9 C 59 % 1029 hPa 0,0 l/m NO -3,5 C 3,7 C 1,9 km/h (1 Bft)
14.01.2005 14:00 5,1 C 53 % 1029 hPa 0,0 l/m N -3,8 C 4,6 C 4,1 km/h (1 Bft)
14.01.2005 15:00 4,8 C 49 % 1029 hPa 0,0 l/m N-NO -4,9 C 3,9 C 3,9 km/h (1 Bft)
14.01.2005 16:00 3,0 C 54 % 1029 hPa 0,0 l/m NO -5,5 C 2,1 C 5,0 km/h (1 Bft)
14.01.2005 17:00 0,6 C 60 % 1029 hPa 0,0 l/m N -6,2 C 0,6 C 0,0 km/h (0 Bft)
14.01.2005 18:00 -1,2 C 67 % 1029 hPa 0,0 l/m N -6,6 C -1,2 C 0,0 km/h (0 Bft)
14.01.2005 19:00 -2,2 C 73 % 1029 hPa 0,0 l/m W -6,5 C -2,2 C 0,3 km/h (0 Bft)
14.01.2005 20:00 -2,8 C 78 % 1029 hPa 0,0 l/m W -6,2 C -2,9 C 0,2 km/h (0 Bft)
14.01.2005 21:00 -3,4 C 81 % 1029 hPa 0,0 l/m NW -6,2 C -3,5 C 1,0 km/h (0 Bft)
14.01.2005 22:00 -3,6 C 83 % 1029 hPa 0,0 l/m W-NW -6,2 C -3,8 C 1,4 km/h (1 Bft)
14.01.2005 23:00 -4,0 C 84 % 1029 hPa 0,0 l/m W-NW -6,4 C -4,2 C 1,9 km/h (1 Bft)
15.01.2005 00:00 -4,2 C 84 % 1028 hPa 0,0 l/m NW -6,4 C -4,4 C 3,7 km/h (1 Bft)
15.01.2005 01:00 -4,1 C 86 % 1028 hPa 0,0 l/m N -6,2 C -4,1 C 0,0 km/h (0 Bft)
15.01.2005 02:00 -4,3 C 86 % 1028 hPa 0,0 l/m NW -6,2 C -4,4 C 4,9 km/h (1 Bft)
15.01.2005 03:00 -4,6 C 88 % 1028 hPa 0,0 l/m NW -6,3 C -5,0 C 4,8 km/h (1 Bft)
15.01.2005 04:00 -4,8 C 89 % 1028 hPa 0,0 l/m W-NW -6,2 C -5,0 C 6,4 km/h (2 Bft)
15.01.2005 05:00 -4,9 C 91 % 1028 hPa 0,0 l/m W-NW -6,1 C -5,3 C 6,1 km/h (2 Bft)
15.01.2005 06:00 -5,2 C 92 % 1027 hPa 0,0 l/m W-NW -6,2 C -5,5 C 4,1 km/h (1 Bft)
15.01.2005 07:00 -5,6 C 93 % 1028 hPa 0,0 l/m NW -6,5 C -6,0 C 5,5 km/h (1 Bft)
15.01.2005 08:00 -5,9 C 93 % 1028 hPa 0,0 l/m NW -6,8 C -7,1 C 7,6 km/h (2 Bft)
15.01.2005 09:00 -5,3 C 96 % 1028 hPa 0,0 l/m NW -5,9 C -5,9 C 5,1 km/h (1 Bft)
15.01.2005 10:00 -3,6 C 97 % 1028 hPa 0,0 l/m N-NO -4,0 C -4,9 C 6,7 km/h (2 Bft)
15.01.2005 11:00 -1,6 C 85 % 1028 hPa 0,0 l/m N-NO -3,9 C -4,3 C 10,4 km/h (2 Bft)
15.01.2005 12:00 1,0 C 70 % 1028 hPa 0,0 l/m N -3,8 C -2,8 C 12,0 km/h (2 Bft)
15.01.2005 13:00 3,3 C 56 % 1027 hPa 0,0 l/m N -4,6 C 0,2 C 10,9 km/h (2 Bft)
15.01.2005 14:00 3,9 C 53 % 1027 hPa 0,0 l/m N-NO -4,9 C 0,4 C 12,1 km/h (2 Bft)
15.01.2005 15:00 3,2 C 55 % 1027 hPa 0,0 l/m N-NO -4,9 C 0,2 C 10,8 km/h (2 Bft)
15.01.2005 16:00 1,8 C 61 % 1027 hPa 0,0 l/m N-NO -4,9 C 0,2 C 8,3 km/h (2 Bft)
15.01.2005 17:00 0,1 C 67 % 1027 hPa 0,0 l/m N-NO -5,3 C -0,0 C 1,3 km/h (1 Bft)
15.01.2005 18:00 -1,4 C 73 % 1027 hPa 0,0 l/m N-NW -5,7 C -3,0 C 7,8 km/h (2 Bft)
15.01.2005 19:00 -2,2 C 78 % 1027 hPa 0,0 l/m N-NW -5,5 C -3,1 C 8,1 km/h (2 Bft)
15.01.2005 20:00 -2,7 C 80 % 1027 hPa 0,0 l/m N-NW -5,6 C -2,9 C 4,5 km/h (1 Bft)
15.01.2005 21:00 -3,5 C 83 % 1027 hPa 0,0 l/m NW -6,0 C -4,3 C 7,6 km/h (2 Bft)
15.01.2005 22:00 -3,9 C 86 % 1027 hPa 0,0 l/m NW -6,0 C -4,8 C 7,6 km/h (2 Bft)
15.01.2005 23:00 -4,4 C 89 % 1027 hPa 0,0 l/m NW -6,0 C -4,7 C 5,2 km/h (1 Bft)
16.01.2005 00:00 -5,1 C 90 % 1026 hPa 0,0 l/m N -6,5 C -5,1 C 0,0 km/h (0 Bft)
16.01.2005 01:00 -5,5 C 90 % 1026 hPa 0,0 l/m W-NW -6,8 C -5,8 C 2,8 km/h (1 Bft)
16.01.2005 02:00 -5,7 C 91 % 1026 hPa 0,0 l/m N -6,9 C -5,7 C 0,0 km/h (0 Bft)
16.01.2005 03:00 -6,2 C 92 % 1026 hPa 0,0 l/m N -7,3 C -6,2 C 0,0 km/h (0 Bft)
16.01.2005 04:00 -6,8 C 92 % 1026 hPa 0,0 l/m N -7,9 C -6,8 C 0,0 km/h (0 Bft)
16.01.2005 05:00 -6,4 C 93 % 1026 hPa 0,0 l/m W-SW -7,3 C -6,7 C 3,6 km/h (1 Bft)
16.01.2005 06:00 -4,7 C 99 % 1026 hPa 0,0 l/m S-SW -4,8 C -6,1 C 7,8 km/h (2 Bft)
16.01.2005 07:00 -4,4 C 100 % 1026 hPa 0,0 l/m S -4,4 C -5,2 C 6,4 km/h (2 Bft)
16.01.2005 08:00 -4,6 C 100 % 1027 hPa 0,0 l/m S-SW -4,6 C -5,6 C 6,5 km/h (2 Bft)
16.01.2005 09:00 -4,4 C 100 % 1027 hPa 0,0 l/m SW -4,4 C -6,0 C 8,2 km/h (2 Bft)
16.01.2005 10:00 -3,9 C 100 % 1028 hPa 0,0 l/m S-SW -3,9 C -6,0 C 9,3 km/h (2 Bft)
16.01.2005 11:00 -3,4 C 100 % 1028 hPa 0,0 l/m S -3,4 C -6,2 C 9,9 km/h (2 Bft)
16.01.2005 12:00 -3,0 C 100 % 1027 hPa 0,0 l/m S -3,0 C -5,9 C 10,1 km/h (2 Bft)
16.01.2005 13:00 -2,8 C 100 % 1027 hPa 0,0 l/m S -2,8 C -5,1 C 9,9 km/h (2 Bft)
16.01.2005 14:00 -2,5 C 100 % 1027 hPa 0,0 l/m S -2,6 C -4,4 C 8,7 km/h (2 Bft)
16.01.2005 15:00 -2,7 C 99 % 1027 hPa 0,0 l/m S -2,9 C -5,0 C 9,1 km/h (2 Bft)
16.01.2005 16:00 -3,1 C 99 % 1026 hPa 0,0 l/m S -3,2 C -6,4 C 11,1 km/h (2 Bft)
16.01.2005 17:00 -3,4 C 100 % 1026 hPa 0,0 l/m S -3,4 C -4,5 C 7,3 km/h (2 Bft)
16.01.2005 18:00 -3,7 C 100 % 1027 hPa 0,0 l/m S-SW -3,7 C -5,5 C 8,4 km/h (2 Bft)
16.01.2005 19:00 -3,8 C 100 % 1027 hPa 0,0 l/m S-SW -3,8 C -7,3 C 10,7 km/h (2 Bft)
16.01.2005 20:00 -3,9 C 100 % 1027 hPa 0,0 l/m S-SW -3,9 C -5,5 C 8,0 km/h (2 Bft)
16.01.2005 21:00 -4,1 C 100 % 1027 hPa 0,0 l/m S -4,1 C -5,3 C 7,1 km/h (2 Bft)
16.01.2005 22:00 -4,3 C 100 % 1027 hPa 0,0 l/m S -4,3 C -4,5 C 4,8 km/h (1 Bft)
16.01.2005 23:00 -4,4 C 100 % 1027 hPa 0,0 l/m S-SW -4,4 C -4,5 C 3,2 km/h (1 Bft)
Min-Datum _ 16.01.05 14.01.05 10.01.05 - - 16.01.05 16.01.05 10.01.05
_ Min-Zeit 04:51 15:02 10:57 - - 04:51 06:33 00:01
Minimum _ -7,0 C 47 % 791 hPa - - -8,1 C -11,7 C 0,0 km/h (0 Bft)
Max-Datum _ 10.01.05 10.01.05 10.01.05 12.01.05 - 13.01.05 10.01.05 13.01.05
_ Max-Zeit 14:25 08:02 06:43 22:52 - 02:22 14:25 12:10
Maximum _ 11,9 C 100 % 1119 hPa 1,0 l/m - 3,7 C 11,9 C 33,8 km/h
W-SW (5 Bft)
Durchschnitt _ 0,5 C 83 % 1028 hPa #3,0 l/m S -2,3 C -0,5 C 5,0 km/h (1 Bft)

Durchschnitt Minimum Temp.-0,1 C
Durchschnitt Maximum Temp.1,2 C